sensor_id;sensor_type;location;lat;lon;timestamp;pressure;altitude;pressure_sealevel;temperature;humidity
12879;BME280;20617;49.476;10.986;2023-07-16T00:00:36;98293.59;;;21.91;100.00
12879;BME280;20617;49.476;10.986;2023-07-16T00:02:44;98308.69;;;22.00;100.00
12879;BME280;20617;49.476;10.986;2023-07-16T00:04:56;98297.09;;;22.01;100.00
12879;BME280;20617;49.476;10.986;2023-07-16T00:07:06;98235.78;;;21.75;100.00
12879;BME280;20617;49.476;10.986;2023-07-16T00:09:12;98228.44;;;21.79;100.00
12879;BME280;20617;49.476;10.986;2023-07-16T00:11:17;98236.38;;;21.88;100.00
12879;BME280;20617;49.476;10.986;2023-07-16T00:13:22;98217.69;;;21.80;100.00
12879;BME280;20617;49.476;10.986;2023-07-16T00:15:27;98240.25;;;21.75;100.00
12879;BME280;20617;49.476;10.986;2023-07-16T00:17:29;98239.88;;;21.89;100.00
12879;BME280;20617;49.476;10.986;2023-07-16T00:19:36;98192.03;;;22.00;100.00
12879;BME280;20617;49.476;10.986;2023-07-16T00:21:40;98182.97;;;22.03;100.00
12879;BME280;20617;49.476;10.986;2023-07-16T00:23:48;98168.88;;;22.12;100.00
12879;BME280;20617;49.476;10.986;2023-07-16T00:25:53;98162.94;;;22.20;100.00
12879;BME280;20617;49.476;10.986;2023-07-16T00:27:58;98156.06;;;22.27;100.00
12879;BME280;20617;49.476;10.986;2023-07-16T00:30:07;98171.41;;;22.33;100.00
12879;BME280;20617;49.476;10.986;2023-07-16T00:32:13;98187.88;;;22.36;100.00
12879;BME280;20617;49.476;10.986;2023-07-16T00:34:18;98159.44;;;22.29;100.00
12879;BME280;20617;49.476;10.986;2023-07-16T00:36:23;98151.88;;;22.24;100.00
12879;BME280;20617;49.476;10.986;2023-07-16T00:38:29;98145.88;;;22.22;100.00
12879;BME280;20617;49.476;10.986;2023-07-16T00:40:37;98171.88;;;22.28;100.00
12879;BME280;20617;49.476;10.986;2023-07-16T00:42:42;98166.84;;;22.25;100.00
12879;BME280;20617;49.476;10.986;2023-07-16T00:44:47;98170.72;;;22.21;100.00
12879;BME280;20617;49.476;10.986;2023-07-16T00:46:52;98171.00;;;22.18;100.00
12879;BME280;20617;49.476;10.986;2023-07-16T00:48:54;98189.13;;;22.13;100.00
12879;BME280;20617;49.476;10.986;2023-07-16T00:51:01;98192.31;;;22.07;100.00
12879;BME280;20617;49.476;10.986;2023-07-16T00:53:07;98211.16;;;22.04;100.00
12879;BME280;20617;49.476;10.986;2023-07-16T00:55:14;98229.72;;;21.94;100.00
12879;BME280;20617;49.476;10.986;2023-07-16T00:57:23;98241.41;;;21.91;100.00
12879;BME280;20617;49.476;10.986;2023-07-16T00:59:28;98278.25;;;21.85;100.00
12879;BME280;20617;49.476;10.986;2023-07-16T01:01:33;98279.47;;;21.81;100.00
12879;BME280;20617;49.476;10.986;2023-07-16T01:03:38;98297.34;;;21.79;100.00
12879;BME280;20617;49.476;10.986;2023-07-16T01:05:47;98264.38;;;21.72;100.00
12879;BME280;20617;49.476;10.986;2023-07-16T01:07:56;98259.63;;;21.75;100.00
12879;BME280;20617;49.476;10.986;2023-07-16T01:10:03;98261.59;;;21.73;100.00
12879;BME280;20617;49.476;10.986;2023-07-16T01:12:10;98278.47;;;21.72;100.00
12879;BME280;20617;49.476;10.986;2023-07-16T01:14:21;98269.81;;;21.70;100.00
12879;BME280;20617;49.476;10.986;2023-07-16T01:16:24;98274.00;;;21.73;100.00
12879;BME280;20617;49.476;10.986;2023-07-16T01:18:31;98256.69;;;21.68;100.00
12879;BME280;20617;49.476;10.986;2023-07-16T01:20:36;98288.09;;;21.42;100.00
12879;BME280;20617;49.476;10.986;2023-07-16T01:23:04;98392.84;;;20.82;100.00
12879;BME280;20617;49.476;10.986;2023-07-16T01:25:29;98420.56;;;20.33;100.00
12879;BME280;20617;49.476;10.986;2023-07-16T01:27:59;98436.72;;;20.07;100.00
12879;BME280;20617;49.476;10.986;2023-07-16T01:30:14;98441.38;;;19.81;100.00
12879;BME280;20617;49.476;10.986;2023-07-16T01:32:20;98441.84;;;19.75;100.00
12879;BME280;20617;49.476;10.986;2023-07-16T01:34:30;98446.97;;;19.65;100.00
12879;BME280;20617;49.476;10.986;2023-07-16T01:36:36;98450.53;;;19.64;100.00
12879;BME280;20617;49.476;10.986;2023-07-16T01:38:42;98463.81;;;19.76;100.00
12879;BME280;20617;49.476;10.986;2023-07-16T01:40:49;98443.16;;;19.92;100.00
12879;BME280;20617;49.476;10.986;2023-07-16T01:42:56;98438.50;;;19.96;100.00
12879;BME280;20617;49.476;10.986;2023-07-16T01:45:01;98446.66;;;20.04;100.00
12879;BME280;20617;49.476;10.986;2023-07-16T01:47:11;98440.88;;;20.10;100.00
12879;BME280;20617;49.476;10.986;2023-07-16T01:49:16;98465.16;;;20.26;100.00
12879;BME280;20617;49.476;10.986;2023-07-16T01:51:23;98467.22;;;20.34;100.00
12879;BME280;20617;49.476;10.986;2023-07-16T01:53:28;98459.63;;;20.41;100.00
12879;BME280;20617;49.476;10.986;2023-07-16T01:55:33;98470.31;;;20.50;100.00
12879;BME280;20617;49.476;10.986;2023-07-16T01:57:35;98452.66;;;20.51;100.00
12879;BME280;20617;49.476;10.986;2023-07-16T01:59:40;98442.19;;;20.49;100.00
12879;BME280;20617;49.476;10.986;2023-07-16T02:01:50;98429.81;;;20.61;100.00
12879;BME280;20617;49.476;10.986;2023-07-16T02:03:57;98439.03;;;20.78;100.00
12879;BME280;20617;49.476;10.986;2023-07-16T02:06:00;98439.13;;;20.88;100.00
12879;BME280;20617;49.476;10.986;2023-07-16T02:08:08;98435.03;;;20.95;100.00
12879;BME280;20617;49.476;10.986;2023-07-16T02:10:13;98414.31;;;21.00;100.00
12879;BME280;20617;49.476;10.986;2023-07-16T02:12:18;98387.56;;;21.03;100.00
12879;BME280;20617;49.476;10.986;2023-07-16T02:14:23;98376.88;;;21.05;100.00
12879;BME280;20617;49.476;10.986;2023-07-16T02:16:29;98357.56;;;21.14;100.00
12879;BME280;20617;49.476;10.986;2023-07-16T02:18:34;98331.81;;;21.16;100.00
12879;BME280;20617;49.476;10.986;2023-07-16T02:20:43;98328.91;;;21.19;100.00
12879;BME280;20617;49.476;10.986;2023-07-16T02:22:49;98321.22;;;21.16;100.00
12879;BME280;20617;49.476;10.986;2023-07-16T02:24:54;98328.19;;;21.17;100.00
12879;BME280;20617;49.476;10.986;2023-07-16T02:26:58;98331.56;;;21.19;100.00
12879;BME280;20617;49.476;10.986;2023-07-16T02:29:03;98319.72;;;21.23;100.00
12879;BME280;20617;49.476;10.986;2023-07-16T02:31:10;98303.84;;;21.23;100.00
12879;BME280;20617;49.476;10.986;2023-07-16T02:33:15;98294.22;;;21.22;100.00
12879;BME280;20617;49.476;10.986;2023-07-16T02:35:20;98287.13;;;21.22;100.00
12879;BME280;20617;49.476;10.986;2023-07-16T02:37:28;98271.66;;;21.18;100.00
12879;BME280;20617;49.476;10.986;2023-07-16T02:39:33;98277.91;;;21.17;100.00
12879;BME280;20617;49.476;10.986;2023-07-16T02:41:38;98294.34;;;21.20;100.00
12879;BME280;20617;49.476;10.986;2023-07-16T02:43:46;98282.34;;;21.16;100.00
12879;BME280;20617;49.476;10.986;2023-07-16T02:45:51;98286.56;;;21.19;100.00
12879;BME280;20617;49.476;10.986;2023-07-16T02:47:56;98304.09;;;21.20;100.00
12879;BME280;20617;49.476;10.986;2023-07-16T02:50:01;98323.94;;;21.25;100.00
12879;BME280;20617;49.476;10.986;2023-07-16T02:52:07;98321.16;;;21.27;100.00
12879;BME280;20617;49.476;10.986;2023-07-16T02:54:14;98327.03;;;21.31;100.00
12879;BME280;20617;49.476;10.986;2023-07-16T02:56:20;98327.41;;;21.26;100.00
12879;BME280;20617;49.476;10.986;2023-07-16T02:58:25;98332.84;;;21.24;100.00
12879;BME280;20617;49.476;10.986;2023-07-16T03:00:31;98317.81;;;21.25;100.00
12879;BME280;20617;49.476;10.986;2023-07-16T03:02:36;98313.34;;;21.25;100.00
12879;BME280;20617;49.476;10.986;2023-07-16T03:04:41;98304.09;;;21.20;100.00
12879;BME280;20617;49.476;10.986;2023-07-16T03:06:47;98295.75;;;21.15;100.00
12879;BME280;20617;49.476;10.986;2023-07-16T03:08:52;98300.88;;;21.16;100.00
12879;BME280;20617;49.476;10.986;2023-07-16T03:11:01;98303.00;;;21.22;100.00
12879;BME280;20617;49.476;10.986;2023-07-16T03:13:06;98306.13;;;21.28;100.00
12879;BME280;20617;49.476;10.986;2023-07-16T03:15:11;98293.84;;;21.27;100.00
12879;BME280;20617;49.476;10.986;2023-07-16T03:17:16;98312.25;;;21.28;100.00
12879;BME280;20617;49.476;10.986;2023-07-16T03:19:21;98340.63;;;21.37;100.00
12879;BME280;20617;49.476;10.986;2023-07-16T03:21:26;98351.66;;;21.42;100.00
12879;BME280;20617;49.476;10.986;2023-07-16T03:23:31;98347.94;;;21.34;100.00
12879;BME280;20617;49.476;10.986;2023-07-16T03:25:37;98322.44;;;21.12;100.00
12879;BME280;20617;49.476;10.986;2023-07-16T03:27:45;98315.75;;;21.08;100.00
12879;BME280;20617;49.476;10.986;2023-07-16T03:29:52;98323.47;;;20.99;100.00
12879;BME280;20617;49.476;10.986;2023-07-16T03:32:00;98317.03;;;20.92;100.00
12879;BME280;20617;49.476;10.986;2023-07-16T03:34:05;98309.94;;;20.93;100.00
12879;BME280;20617;49.476;10.986;2023-07-16T03:36:10;98311.03;;;20.90;100.00
12879;BME280;20617;49.476;10.986;2023-07-16T03:38:19;98299.41;;;20.82;100.00
12879;BME280;20617;49.476;10.986;2023-07-16T03:40:25;98308.81;;;20.74;100.00
12879;BME280;20617;49.476;10.986;2023-07-16T03:42:31;98325.66;;;20.73;100.00
12879;BME280;20617;49.476;10.986;2023-07-16T03:44:36;98325.03;;;20.81;100.00
12879;BME280;20617;49.476;10.986;2023-07-16T03:46:41;98317.19;;;20.79;100.00
12879;BME280;20617;49.476;10.986;2023-07-16T03:48:47;98320.31;;;20.85;100.00
12879;BME280;20617;49.476;10.986;2023-07-16T03:50:55;98303.97;;;20.79;100.00
12879;BME280;20617;49.476;10.986;2023-07-16T03:53:02;98300.50;;;20.79;100.00
12879;BME280;20617;49.476;10.986;2023-07-16T03:55:08;98311.91;;;20.79;100.00
12879;BME280;20617;49.476;10.986;2023-07-16T03:57:13;98313.47;;;20.82;100.00
12879;BME280;20617;49.476;10.986;2023-07-16T03:59:18;98304.13;;;20.78;100.00
12879;BME280;20617;49.476;10.986;2023-07-16T04:01:27;98301.94;;;20.83;100.00
12879;BME280;20617;49.476;10.986;2023-07-16T04:03:33;98326.06;;;20.90;100.00
12879;BME280;20617;49.476;10.986;2023-07-16T04:05:39;98340.19;;;21.00;100.00
12879;BME280;20617;49.476;10.986;2023-07-16T04:07:45;98347.81;;;21.14;100.00
12879;BME280;20617;49.476;10.986;2023-07-16T04:09:50;98349.56;;;21.25;100.00
12879;BME280;20617;49.476;10.986;2023-07-16T04:11:55;98346.97;;;21.35;100.00
12879;BME280;20617;49.476;10.986;2023-07-16T04:14:00;98335.88;;;21.41;100.00
12879;BME280;20617;49.476;10.986;2023-07-16T04:16:05;98333.03;;;21.33;100.00
12879;BME280;20617;49.476;10.986;2023-07-16T04:18:13;98346.94;;;21.25;100.00
12879;BME280;20617;49.476;10.986;2023-07-16T04:20:22;98342.78;;;21.11;100.00
12879;BME280;20617;49.476;10.986;2023-07-16T04:22:28;98338.25;;;21.02;100.00
12879;BME280;20617;49.476;10.986;2023-07-16T04:24:36;98354.66;;;20.96;100.00
12879;BME280;20617;49.476;10.986;2023-07-16T04:26:41;98367.81;;;20.86;100.00
12879;BME280;20617;49.476;10.986;2023-07-16T04:28:45;98376.75;;;20.74;100.00
12879;BME280;20617;49.476;10.986;2023-07-16T04:30:50;98418.72;;;20.78;100.00
12879;BME280;20617;49.476;10.986;2023-07-16T04:32:55;98418.34;;;20.83;100.00
12879;BME280;20617;49.476;10.986;2023-07-16T04:35:03;98404.41;;;20.81;100.00
12879;BME280;20617;49.476;10.986;2023-07-16T04:37:08;98402.97;;;20.77;100.00
12879;BME280;20617;49.476;10.986;2023-07-16T04:39:13;98390.16;;;20.61;100.00
12879;BME280;20617;49.476;10.986;2023-07-16T04:41:18;98384.00;;;20.49;100.00
12879;BME280;20617;49.476;10.986;2023-07-16T04:43:20;98381.63;;;20.35;100.00
12879;BME280;20617;49.476;10.986;2023-07-16T04:45:25;98383.69;;;20.31;100.00
12879;BME280;20617;49.476;10.986;2023-07-16T04:47:30;98384.28;;;20.24;100.00
12879;BME280;20617;49.476;10.986;2023-07-16T04:49:36;98382.63;;;20.23;100.00
12879;BME280;20617;49.476;10.986;2023-07-16T04:51:43;98388.41;;;20.17;100.00
12879;BME280;20617;49.476;10.986;2023-07-16T04:53:51;98378.44;;;20.09;100.00
12879;BME280;20617;49.476;10.986;2023-07-16T04:55:56;98371.00;;;20.03;100.00
12879;BME280;20617;49.476;10.986;2023-07-16T04:58:01;98381.91;;;20.09;100.00
12879;BME280;20617;49.476;10.986;2023-07-16T05:00:05;98373.28;;;20.07;100.00
12879;BME280;20617;49.476;10.986;2023-07-16T05:02:10;98363.88;;;20.26;100.00
12879;BME280;20617;49.476;10.986;2023-07-16T05:04:17;98368.44;;;20.24;100.00
12879;BME280;20617;49.476;10.986;2023-07-16T05:06:23;98367.59;;;20.12;100.00
12879;BME280;20617;49.476;10.986;2023-07-16T05:08:28;98381.88;;;20.32;100.00
12879;BME280;20617;49.476;10.986;2023-07-16T05:10:33;98375.28;;;20.26;100.00
12879;BME280;20617;49.476;10.986;2023-07-16T05:12:38;98388.25;;;20.18;100.00
12879;BME280;20617;49.476;10.986;2023-07-16T05:14:44;98381.53;;;20.25;100.00
12879;BME280;20617;49.476;10.986;2023-07-16T05:16:47;98382.13;;;20.29;100.00
12879;BME280;20617;49.476;10.986;2023-07-16T05:18:52;98385.59;;;20.29;100.00
12879;BME280;20617;49.476;10.986;2023-07-16T05:20:57;98393.28;;;20.32;100.00
12879;BME280;20617;49.476;10.986;2023-07-16T05:23:02;98396.78;;;20.33;100.00
12879;BME280;20617;49.476;10.986;2023-07-16T05:25:10;98399.28;;;20.46;100.00
12879;BME280;20617;49.476;10.986;2023-07-16T05:27:15;98392.09;;;20.37;100.00
12879;BME280;20617;49.476;10.986;2023-07-16T05:29:22;98394.50;;;20.40;100.00
12879;BME280;20617;49.476;10.986;2023-07-16T05:31:27;98403.59;;;20.47;100.00
12879;BME280;20617;49.476;10.986;2023-07-16T05:33:33;98396.78;;;20.55;100.00
12879;BME280;20617;49.476;10.986;2023-07-16T05:35:39;98394.97;;;20.56;100.00
12879;BME280;20617;49.476;10.986;2023-07-16T05:37:44;98398.78;;;20.52;100.00
12879;BME280;20617;49.476;10.986;2023-07-16T05:39:51;98402.28;;;20.41;100.00
12879;BME280;20617;49.476;10.986;2023-07-16T05:41:56;98424.06;;;20.33;100.00
12879;BME280;20617;49.476;10.986;2023-07-16T05:44:03;98418.66;;;20.35;100.00
12879;BME280;20617;49.476;10.986;2023-07-16T05:46:08;98418.41;;;20.27;100.00
12879;BME280;20617;49.476;10.986;2023-07-16T05:48:13;98402.19;;;20.31;100.00
12879;BME280;20617;49.476;10.986;2023-07-16T05:50:18;98399.91;;;20.38;100.00
12879;BME280;20617;49.476;10.986;2023-07-16T05:52:23;98404.47;;;20.36;100.00
12879;BME280;20617;49.476;10.986;2023-07-16T05:54:30;98405.56;;;20.33;100.00
12879;BME280;20617;49.476;10.986;2023-07-16T05:56:33;98399.16;;;20.36;100.00
12879;BME280;20617;49.476;10.986;2023-07-16T05:58:41;98399.91;;;20.27;100.00
12879;BME280;20617;49.476;10.986;2023-07-16T06:00:46;98398.00;;;20.29;100.00
12879;BME280;20617;49.476;10.986;2023-07-16T06:02:52;98387.91;;;20.11;100.00
12879;BME280;20617;49.476;10.986;2023-07-16T06:04:58;98407.59;;;20.30;100.00
12879;BME280;20617;49.476;10.986;2023-07-16T06:07:04;98415.16;;;20.46;100.00
12879;BME280;20617;49.476;10.986;2023-07-16T06:09:10;98429.47;;;20.54;100.00
12879;BME280;20617;49.476;10.986;2023-07-16T06:11:15;98424.19;;;20.54;100.00
12879;BME280;20617;49.476;10.986;2023-07-16T06:13:20;98429.81;;;20.50;100.00
12879;BME280;20617;49.476;10.986;2023-07-16T06:15:28;98426.94;;;20.42;100.00
12879;BME280;20617;49.476;10.986;2023-07-16T06:17:33;98426.47;;;20.25;100.00
12879;BME280;20617;49.476;10.986;2023-07-16T06:19:39;98415.78;;;20.16;100.00
12879;BME280;20617;49.476;10.986;2023-07-16T06:21:44;98422.38;;;20.21;100.00
12879;BME280;20617;49.476;10.986;2023-07-16T06:23:51;98432.00;;;20.33;100.00
12879;BME280;20617;49.476;10.986;2023-07-16T06:25:56;98430.69;;;20.39;100.00
12879;BME280;20617;49.476;10.986;2023-07-16T06:28:04;98424.91;;;20.45;100.00
12879;BME280;20617;49.476;10.986;2023-07-16T06:30:10;98430.19;;;20.45;100.00
12879;BME280;20617;49.476;10.986;2023-07-16T06:32:17;98436.66;;;20.41;100.00
12879;BME280;20617;49.476;10.986;2023-07-16T06:34:22;98441.84;;;20.43;100.00
12879;BME280;20617;49.476;10.986;2023-07-16T06:36:25;98440.28;;;20.51;100.00
12879;BME280;20617;49.476;10.986;2023-07-16T06:38:30;98429.56;;;20.42;100.00
12879;BME280;20617;49.476;10.986;2023-07-16T06:40:35;98430.31;;;20.32;100.00
12879;BME280;20617;49.476;10.986;2023-07-16T06:42:40;98423.44;;;20.41;100.00
12879;BME280;20617;49.476;10.986;2023-07-16T06:44:44;98413.59;;;20.43;100.00
12879;BME280;20617;49.476;10.986;2023-07-16T06:46:50;98420.81;;;20.52;100.00
12879;BME280;20617;49.476;10.986;2023-07-16T06:48:58;98414.44;;;20.55;100.00
12879;BME280;20617;49.476;10.986;2023-07-16T06:51:04;98426.09;;;20.64;100.00
12879;BME280;20617;49.476;10.986;2023-07-16T06:53:08;98412.88;;;20.64;100.00
12879;BME280;20617;49.476;10.986;2023-07-16T06:55:11;98416.25;;;20.54;100.00
12879;BME280;20617;49.476;10.986;2023-07-16T06:57:17;98422.03;;;20.60;100.00
12879;BME280;20617;49.476;10.986;2023-07-16T06:59:29;98428.00;;;20.50;100.00
12879;BME280;20617;49.476;10.986;2023-07-16T07:01:36;98433.31;;;20.62;100.00
12879;BME280;20617;49.476;10.986;2023-07-16T07:03:43;98447.84;;;20.67;100.00
12879;BME280;20617;49.476;10.986;2023-07-16T07:05:57;98446.16;;;20.66;100.00
12879;BME280;20617;49.476;10.986;2023-07-16T07:08:03;98442.53;;;20.78;100.00
12879;BME280;20617;49.476;10.986;2023-07-16T07:10:08;98441.31;;;20.83;100.00
12879;BME280;20617;49.476;10.986;2023-07-16T07:12:16;98437.94;;;20.92;100.00
12879;BME280;20617;49.476;10.986;2023-07-16T07:14:24;98421.28;;;21.01;100.00
12879;BME280;20617;49.476;10.986;2023-07-16T07:16:31;98433.28;;;21.05;100.00
12879;BME280;20617;49.476;10.986;2023-07-16T07:18:36;98427.88;;;21.07;100.00
12879;BME280;20617;49.476;10.986;2023-07-16T07:20:41;98439.59;;;20.93;100.00
12879;BME280;20617;49.476;10.986;2023-07-16T07:23:01;98441.66;;;20.89;100.00
12879;BME280;20617;49.476;10.986;2023-07-16T07:25:08;98439.94;;;20.99;100.00
12879;BME280;20617;49.476;10.986;2023-07-16T07:27:14;98429.09;;;21.02;100.00
12879;BME280;20617;49.476;10.986;2023-07-16T07:29:21;98437.06;;;20.91;100.00
12879;BME280;20617;49.476;10.986;2023-07-16T07:31:27;98437.47;;;20.87;100.00
12879;BME280;20617;49.476;10.986;2023-07-16T07:33:31;98431.22;;;20.76;100.00
12879;BME280;20617;49.476;10.986;2023-07-16T07:35:37;98433.00;;;20.87;100.00
12879;BME280;20617;49.476;10.986;2023-07-16T07:37:44;98426.25;;;20.94;100.00
12879;BME280;20617;49.476;10.986;2023-07-16T07:39:52;98432.09;;;21.09;100.00
12879;BME280;20617;49.476;10.986;2023-07-16T07:41:57;98428.22;;;21.34;100.00
12879;BME280;20617;49.476;10.986;2023-07-16T07:44:01;98419.69;;;21.42;100.00
12879;BME280;20617;49.476;10.986;2023-07-16T07:46:07;98428.47;;;21.42;100.00
12879;BME280;20617;49.476;10.986;2023-07-16T07:48:12;98410.44;;;21.36;100.00
12879;BME280;20617;49.476;10.986;2023-07-16T07:50:17;98403.22;;;21.38;100.00
12879;BME280;20617;49.476;10.986;2023-07-16T07:52:22;98411.72;;;21.63;100.00
12879;BME280;20617;49.476;10.986;2023-07-16T07:54:27;98398.97;;;21.78;100.00
12879;BME280;20617;49.476;10.986;2023-07-16T07:56:34;98389.94;;;21.80;100.00
12879;BME280;20617;49.476;10.986;2023-07-16T07:58:41;98385.75;;;21.57;100.00
12879;BME280;20617;49.476;10.986;2023-07-16T08:00:46;98405.59;;;21.62;100.00
12879;BME280;20617;49.476;10.986;2023-07-16T08:02:51;98408.00;;;21.44;100.00
12879;BME280;20617;49.476;10.986;2023-07-16T08:04:56;98410.50;;;21.46;100.00
12879;BME280;20617;49.476;10.986;2023-07-16T08:07:06;98408.34;;;21.61;100.00
12879;BME280;20617;49.476;10.986;2023-07-16T08:09:12;98403.97;;;21.71;100.00
12879;BME280;20617;49.476;10.986;2023-07-16T08:11:18;98408.75;;;21.77;100.00
12879;BME280;20617;49.476;10.986;2023-07-16T08:13:25;98415.47;;;21.60;100.00
12879;BME280;20617;49.476;10.986;2023-07-16T08:15:30;98425.84;;;21.31;100.00
12879;BME280;20617;49.476;10.986;2023-07-16T08:17:38;98435.34;;;21.01;100.00
12879;BME280;20617;49.476;10.986;2023-07-16T08:19:43;98427.47;;;20.90;100.00
12879;BME280;20617;49.476;10.986;2023-07-16T08:21:50;98439.63;;;21.14;100.00
12879;BME280;20617;49.476;10.986;2023-07-16T08:26:00;98438.50;;;21.28;100.00
12879;BME280;20617;49.476;10.986;2023-07-16T08:28:05;98436.31;;;21.44;100.00
12879;BME280;20617;49.476;10.986;2023-07-16T08:30:14;98441.72;;;21.63;100.00
12879;BME280;20617;49.476;10.986;2023-07-16T08:32:22;98429.41;;;21.83;100.00
12879;BME280;20617;49.476;10.986;2023-07-16T08:34:27;98431.19;;;21.73;100.00
12879;BME280;20617;49.476;10.986;2023-07-16T08:36:32;98437.97;;;21.66;100.00
12879;BME280;20617;49.476;10.986;2023-07-16T08:38:37;98436.75;;;21.70;100.00
12879;BME280;20617;49.476;10.986;2023-07-16T08:40:42;98419.94;;;21.60;100.00
12879;BME280;20617;49.476;10.986;2023-07-16T08:42:48;98419.47;;;21.76;100.00
12879;BME280;20617;49.476;10.986;2023-07-16T08:44:54;98420.94;;;21.89;100.00
12879;BME280;20617;49.476;10.986;2023-07-16T08:47:02;98423.13;;;21.84;100.00
12879;BME280;20617;49.476;10.986;2023-07-16T08:49:08;98425.78;;;22.05;100.00
12879;BME280;20617;49.476;10.986;2023-07-16T08:51:15;98423.69;;;22.09;100.00
12879;BME280;20617;49.476;10.986;2023-07-16T08:53:21;98430.06;;;21.97;100.00
12879;BME280;20617;49.476;10.986;2023-07-16T08:55:28;98423.41;;;22.12;100.00
12879;BME280;20617;49.476;10.986;2023-07-16T08:57:33;98428.41;;;22.05;100.00
12879;BME280;20617;49.476;10.986;2023-07-16T08:59:38;98430.81;;;21.87;100.00
12879;BME280;20617;49.476;10.986;2023-07-16T09:01:46;98431.50;;;21.80;100.00
12879;BME280;20617;49.476;10.986;2023-07-16T09:03:54;98431.59;;;21.78;100.00
12879;BME280;20617;49.476;10.986;2023-07-16T09:05:59;98433.31;;;21.79;100.00
12879;BME280;20617;49.476;10.986;2023-07-16T09:08:05;98428.84;;;21.80;100.00
12879;BME280;20617;49.476;10.986;2023-07-16T09:10:14;98430.22;;;21.74;100.00
12879;BME280;20617;49.476;10.986;2023-07-16T09:12:23;98427.75;;;21.82;100.00
12879;BME280;20617;49.476;10.986;2023-07-16T09:14:28;98423.06;;;21.96;100.00
12879;BME280;20617;49.476;10.986;2023-07-16T09:16:33;98426.53;;;21.96;100.00
12879;BME280;20617;49.476;10.986;2023-07-16T09:18:40;98418.16;;;22.22;100.00
12879;BME280;20617;49.476;10.986;2023-07-16T09:20:56;98420.09;;;22.60;100.00
12879;BME280;20617;49.476;10.986;2023-07-16T09:23:04;98418.63;;;22.87;100.00
12879;BME280;20617;49.476;10.986;2023-07-16T09:25:10;98416.66;;;22.89;100.00
12879;BME280;20617;49.476;10.986;2023-07-16T09:27:15;98410.28;;;23.11;100.00
12879;BME280;20617;49.476;10.986;2023-07-16T09:29:21;98410.25;;;23.40;100.00
12879;BME280;20617;49.476;10.986;2023-07-16T09:31:26;98411.03;;;23.69;100.00
12879;BME280;20617;49.476;10.986;2023-07-16T09:33:31;98412.06;;;23.49;100.00
12879;BME280;20617;49.476;10.986;2023-07-16T09:35:36;98415.28;;;23.23;100.00
12879;BME280;20617;49.476;10.986;2023-07-16T09:37:44;98408.00;;;23.45;100.00
12879;BME280;20617;49.476;10.986;2023-07-16T09:39:52;98403.34;;;23.66;100.00
12879;BME280;20617;49.476;10.986;2023-07-16T09:41:58;98408.66;;;23.76;100.00
12879;BME280;20617;49.476;10.986;2023-07-16T09:44:03;98405.47;;;24.10;100.00
12879;BME280;20617;49.476;10.986;2023-07-16T09:46:10;98400.19;;;24.28;100.00
12879;BME280;20617;49.476;10.986;2023-07-16T09:48:15;98400.84;;;24.39;100.00
12879;BME280;20617;49.476;10.986;2023-07-16T09:50:27;98391.09;;;24.58;100.00
12879;BME280;20617;49.476;10.986;2023-07-16T09:52:33;98392.19;;;24.65;100.00
12879;BME280;20617;49.476;10.986;2023-07-16T09:54:41;98383.88;;;24.50;100.00
12879;BME280;20617;49.476;10.986;2023-07-16T09:56:50;98385.19;;;24.64;100.00
12879;BME280;20617;49.476;10.986;2023-07-16T09:58:55;98377.88;;;24.84;100.00
12879;BME280;20617;49.476;10.986;2023-07-16T10:00:59;98384.06;;;25.02;100.00
12879;BME280;20617;49.476;10.986;2023-07-16T10:03:08;98371.56;;;25.21;100.00
12879;BME280;20617;49.476;10.986;2023-07-16T10:05:15;98377.59;;;25.23;100.00
12879;BME280;20617;49.476;10.986;2023-07-16T10:07:21;98378.13;;;25.26;100.00
12879;BME280;20617;49.476;10.986;2023-07-16T10:09:36;98381.41;;;25.20;100.00
12879;BME280;20617;49.476;10.986;2023-07-16T10:11:42;98369.50;;;25.33;100.00
12879;BME280;20617;49.476;10.986;2023-07-16T10:13:52;98386.50;;;25.32;100.00
12879;BME280;20617;49.476;10.986;2023-07-16T10:15:58;98390.44;;;25.27;100.00
12879;BME280;20617;49.476;10.986;2023-07-16T10:18:05;98388.59;;;24.92;100.00
12879;BME280;20617;49.476;10.986;2023-07-16T10:20:11;98392.78;;;24.77;100.00
12879;BME280;20617;49.476;10.986;2023-07-16T10:22:18;98383.34;;;24.65;100.00
12879;BME280;20617;49.476;10.986;2023-07-16T10:24:20;98379.97;;;24.45;100.00
12879;BME280;20617;49.476;10.986;2023-07-16T10:26:35;98378.97;;;24.46;100.00
12879;BME280;20617;49.476;10.986;2023-07-16T10:28:43;98376.63;;;24.43;100.00
12879;BME280;20617;49.476;10.986;2023-07-16T10:30:54;98371.53;;;23.94;100.00
12879;BME280;20617;49.476;10.986;2023-07-16T10:33:02;98374.25;;;23.75;100.00
12879;BME280;20617;49.476;10.986;2023-07-16T10:35:09;98367.63;;;23.88;100.00
12879;BME280;20617;49.476;10.986;2023-07-16T10:37:15;98371.28;;;24.15;100.00
12879;BME280;20617;49.476;10.986;2023-07-16T10:39:22;98376.84;;;24.49;100.00
12879;BME280;20617;49.476;10.986;2023-07-16T10:41:28;98377.59;;;24.87;100.00
12879;BME280;20617;49.476;10.986;2023-07-16T10:43:33;98376.13;;;25.11;100.00
12879;BME280;20617;49.476;10.986;2023-07-16T10:45:42;98365.00;;;25.33;100.00
12879;BME280;20617;49.476;10.986;2023-07-16T10:47:52;98355.88;;;25.62;100.00
12879;BME280;20617;49.476;10.986;2023-07-16T10:49:58;98356.22;;;25.67;100.00
12879;BME280;20617;49.476;10.986;2023-07-16T10:52:07;98361.13;;;25.53;100.00
12879;BME280;20617;49.476;10.986;2023-07-16T10:54:12;98356.03;;;25.60;100.00